35.5°F
Current conditions from King Hill
Updated every 5 minutes
 
  Sunday April 20, 2014

Observations for Westford

Westford

44° 37' 39"N, 73° 02' 29"W, Elevation 850 ft.
Eastern Time

Hourly observations for the last 72 hours

Date Time Temperature (F) Humi-
dity

(%)
Wind
(mph)
Pressure Rain (in)
Air Dew 6 Hour 1 Hr 3 Hr 6 Hr Day
Alt
(in)
Sea
Level

(mb)
Max Min
19 23:00 35.2 24.2 64 Calm 30.39 1029.3 0.19
19 22:00 35.9 24.2 62 Calm 30.39 1029.1 0.19
19 21:00 37.4 24.4 59 Calm 30.37 1028.6 0.19
19 20:00 39.0 23.3 48.4 39.0 53 Calm 30.34 1027.6 0.19
19 19:00 44.2 24.2 45 NW 1 G 11 30.33 1027.3 0.19
19 18:00 47.1 26.9 45 NNW 1 G 13 30.32 1026.9 0.19
19 17:00 46.7 29.5 51 NW 0 G 16 30.31 1026.4 0.19
19 16:00 48.3 33.3 56 NNW 2 G 15 30.30 1026.0 0.19
19 15:00 45.2 32.1 60 NW 7 G 15 30.30 1026.0 0.19
19 14:00 42.5 35.5 42.5 37.8 76 NW 4 G 13 30.30 1026.0 0.05 0.19
19 13:00 39.9 36.3 87 WNW 1 G 7 30.30 1026.0 0.19
19 12:00 38.2 36.6 94 NNW 0 G 13 30.28 1025.5 0.19
19 11:00 37.9 36.6 95 NW 6 G 15 30.27 1025.0 0.05 0.19
19 10:00 37.9 36.6 95 NNW 2 G 9 30.26 1024.7 0.02 0.19
19 09:00 38.3 37.3 96 N 4 G 11 30.22 1023.5 0.03 0.17
19 08:00 38.8 37.8 42.8 37.9 96 NW 2 G 16 30.19 1022.4 0.01 0.13 0.14 0.14
19 07:00 39.1 37.8 95 NNW 3 G 15 30.16 1021.3 0.06 0.13
19 06:00 39.2 36.8 91 NW 5 G 14 30.13 1020.5 0.06 0.07
19 05:00 38.0 33.6 84 WSW 0 G 4 30.11 1019.6 0.01 0.01 0.01
19 04:00 41.6 29.6 62 Calm 30.10 1019.3 0.00
19 03:00 42.1 28.8 59 SW 4 G 8 30.10 1019.2 0.00
19 02:00 42.8 28.2 45.2 42.7 56 SSW 2 G 9 30.10 1019.4 0.00
19 01:00 43.1 27.6 54 SSW 2 G 8 30.12 1020.0 0.00
19 00:00 44.0 26.6 50 SSW 2 G 10 30.13 1020.4 0.00
18 23:00 44.4 25.9 48 SSW 5 G 11 30.14 1020.6 0.00
18 22:00 43.7 25.8 49 SSW 3 G 10 30.14 1020.7 0.00
18 21:00 44.5 24.5 45 SSW 1 G 9 30.14 1020.8 0.00
18 20:00 45.2 23.5 51.9 45.2 42 SSW 3 G 9 30.14 1020.7 0.00
18 19:00 48.0 21.6 35 S 2 G 8 30.14 1020.6 0.00
18 18:00 48.6 20.1 32 S 2 G 15 30.16 1021.4 0.00
18 17:00 48.8 20.2 32 SSW 4 G 16 30.19 1022.2 0.00
18 16:00 49.8 18.0 28 SSW 3 G 14 30.23 1023.8 0.00
18 15:00 51.0 18.2 27 SW 8 G 16 30.25 1024.5 0.00
18 14:00 51.1 15.5 51.7 35.2 24 SSW 5 G 12 30.26 1024.7 0.00
18 13:00 50.7 14.2 23 S 1 G 10 30.29 1025.8 0.00
18 12:00 47.6 13.5 25 S 4 G 13 30.34 1027.6 0.00
18 11:00 45.1 17.0 32 SSW 4 G 11 30.38 1028.8 0.00
18 10:00 41.3 12.9 31 SSW 6 G 11 30.42 1030.2 0.00
18 09:00 39.6 14.2 35 S 6 G 12 30.42 1030.2 0.00
18 08:00 35.2 17.9 35.2 30.8 49 Calm 30.43 1030.4 0.00
18 07:00 33.4 14.3 45 S 0 G 7 30.43 1030.6 0.00
18 06:00 33.2 13.1 43 SSE 0 G 7 30.44 1030.9 0.00
18 05:00 31.5 13.1 46 S 0 G 6 30.48 1032.3 0.00
18 04:00 32.3 11.8 42 Calm 30.50 1032.8 0.00
18 03:00 34.0 9.8 36 S 2 G 9 30.50 1033.0 0.00
18 02:00 34.5 10.9 40.0 34.5 37 S 1 G 6 30.51 1033.4 0.00
18 01:00 35.7 14.3 41 S 4 G 13 30.53 1033.8 0.00
18 00:00 36.2 20.3 52 S 3 G 9 30.55 1034.4 0.05
17 23:00 36.7 20.7 52 SSW 0 G 9 30.55 1034.6 0.05
17 22:00 37.8 19.4 47 S 1 G 10 30.55 1034.6 0.05
17 21:00 37.5 19.6 48 S 0 G 5 30.57 1035.2 0.05
17 20:00 40.0 19.3 46.8 40.0 43 S 2 G 9 30.57 1035.1 0.05
17 19:00 44.5 17.9 34 S 4 G 8 30.57 1035.4 0.05
17 18:00 46.7 19.8 34 SSW 0 G 6 30.60 1036.2 0.05
17 17:00 46.2 20.0 35 SSW 4 G 8 30.61 1036.7 0.05
17 16:00 45.8 19.7 35 SW 0 G 7 30.64 1037.6 0.05
17 15:00 43.9 19.3 37 SSE 0 G 4 30.67 1038.5 0.05
17 14:00 41.6 18.5 41.8 25.5 39 SSW 4 G 15 30.69 1039.3 0.01 0.04 0.05 0.05
17 13:00 40.1 18.8 42 SSW 3 G 11 30.71 1040.0 0.02 0.04
17 12:00 38.6 18.6 44 S 2 G 6 30.73 1040.6 0.01 0.02
17 11:00 36.0 16.2 44 SSW 6 G 10 30.75 1041.2 0.01 0.01 0.01
17 10:00 34.6 14.9 44 Calm 30.75 1041.2 0.00
17 09:00 30.3 17.7 59 Calm 30.75 1041.2 0.00
17 08:00 25.5 17.7 25.5 15.3 72 Calm 30.71 1040.1 0.00
17 07:00 19.1 15.1 84 Calm 30.72 1040.3 0.00
17 06:00 17.0 14.8 91 Calm 30.71 1040.0 0.00
17 05:00 17.7 14.5 87 Calm 30.70 1039.8 0.00
17 04:00 15.3 13.4 92 Calm 30.68 1039.0 0.00
17 03:00 16.6 14.7 92 Calm 30.66 1038.3 0.00
17 02:00 17.2 14.8 24.9 17.1 90 Calm 30.66 1038.1 0.00
17 01:00 17.9 15.5 90 Calm 30.64 1037.7 0.00
17 00:00 19.7 15.9 85 Calm 30.63 1037.4 0.21

Data generated by WxSolution Version 1.8.7.2, Build 2014.02.15.


 
 
Current Radar Loop:

Copyright © WestfordWeather.net 2007-2014. All rights reserved.